createdAt,value
2022-10-07T00:00:56.087Z,10.90
2022-10-07T00:03:25.844Z,10.40
2022-10-07T00:06:11.502Z,10.30
2022-10-07T00:08:40.518Z,10.30
2022-10-07T00:11:18.264Z,10.30
2022-10-07T00:13:49.923Z,10.30
2022-10-07T00:16:22.819Z,10.30
2022-10-07T00:18:54.150Z,10.40
2022-10-07T00:21:22.384Z,10.30
2022-10-07T00:23:49.350Z,10.80
2022-10-07T00:26:19.124Z,10.20
2022-10-07T00:28:46.761Z,10.20
2022-10-07T00:31:19.016Z,10.20
2022-10-07T00:33:46.477Z,10.20
2022-10-07T00:36:18.930Z,10.40
2022-10-07T00:38:55.956Z,10.10
2022-10-07T00:41:26.439Z,10.10
2022-10-07T00:43:53.535Z,10.10
2022-10-07T00:46:30.822Z,10.10
2022-10-07T00:49:11.604Z,10.00
2022-10-07T00:51:40.295Z,10.00
2022-10-07T00:54:16.695Z,10.00
2022-10-07T00:56:45.192Z,10.10
2022-10-07T00:59:15.475Z,9.90
2022-10-07T01:01:42.780Z,9.90
2022-10-07T01:04:12.543Z,10.10
2022-10-07T01:06:40.788Z,9.90
2022-10-07T01:09:09.501Z,9.90
2022-10-07T01:12:01.893Z,9.90
2022-10-07T01:14:46.316Z,9.90
2022-10-07T01:17:39.521Z,9.90
2022-10-07T01:20:23.992Z,9.90
2022-10-07T01:23:17.179Z,9.90
2022-10-07T01:26:14.900Z,9.90
2022-10-07T01:28:48.284Z,10.10
2022-10-07T01:31:19.503Z,9.90
2022-10-07T01:33:48.957Z,9.90
2022-10-07T01:36:23.436Z,9.90
2022-10-07T01:38:56.696Z,9.90
2022-10-07T01:41:24.392Z,10.00
2022-10-07T01:43:54.748Z,10.40
2022-10-07T01:46:24.443Z,9.80
2022-10-07T01:48:53.396Z,9.90
2022-10-07T01:51:29.878Z,10.80
2022-10-07T01:54:19.333Z,9.70
2022-10-07T01:57:11.649Z,9.70
2022-10-07T01:59:51.790Z,9.80
2022-10-07T02:02:46.377Z,9.90
2022-10-07T02:05:32.501Z,9.70
2022-10-07T02:08:18.210Z,9.70
2022-10-07T02:11:08.527Z,9.70
2022-10-07T02:13:57.274Z,9.70
2022-10-07T02:16:51.046Z,9.70
2022-10-07T02:19:29.868Z,10.00
2022-10-07T02:22:01.978Z,9.60
2022-10-07T02:24:33.422Z,9.90
2022-10-07T02:27:06.149Z,9.70
2022-10-07T02:29:36.065Z,9.70
2022-10-07T02:32:07.581Z,9.70
2022-10-07T02:34:36.190Z,9.60
2022-10-07T02:37:08.238Z,10.50
2022-10-07T02:39:35.592Z,9.90
2022-10-07T02:42:16.582Z,9.60
2022-10-07T02:45:10.201Z,9.60
2022-10-07T02:47:51.339Z,9.60
2022-10-07T02:50:23.602Z,9.60
2022-10-07T02:52:55.809Z,10.40
2022-10-07T02:55:27.621Z,9.60
2022-10-07T02:57:59.059Z,9.50
2022-10-07T03:00:29.134Z,9.60
2022-10-07T03:03:03.838Z,9.60
2022-10-07T03:05:43.090Z,9.80
2022-10-07T03:08:12.366Z,10.40
2022-10-07T03:10:42.287Z,9.60
2022-10-07T03:13:11.466Z,10.40
2022-10-07T03:15:43.106Z,9.60
2022-10-07T03:18:29.336Z,11.00
2022-10-07T03:21:08.562Z,9.60
2022-10-07T03:23:36.106Z,10.30
2022-10-07T03:26:03.062Z,10.40
2022-10-07T03:28:33.446Z,9.50
2022-10-07T03:31:06.525Z,9.50
2022-10-07T03:33:36.196Z,9.50
2022-10-07T03:36:05.985Z,10.00
2022-10-07T03:38:33.602Z,9.50
2022-10-07T03:41:01.944Z,9.50
2022-10-07T03:43:29.357Z,9.50
2022-10-07T03:46:02.346Z,9.80
2022-10-07T03:48:31.691Z,9.80
2022-10-07T03:50:59.227Z,10.30
2022-10-07T03:53:29.732Z,10.20
2022-10-07T03:55:58.623Z,9.50
2022-10-07T03:58:25.850Z,9.50
2022-10-07T04:01:03.459Z,9.60
2022-10-07T04:03:30.595Z,9.50
2022-10-07T04:06:05.417Z,9.50
2022-10-07T04:08:36.205Z,9.50
2022-10-07T04:11:07.412Z,9.40
2022-10-07T04:13:41.844Z,9.50
2022-10-07T04:16:12.700Z,9.50
2022-10-07T04:18:45.747Z,9.50
2022-10-07T04:21:14.617Z,9.50
2022-10-07T04:23:42.710Z,9.50
2022-10-07T04:26:12.036Z,9.40
2022-10-07T04:28:43.361Z,9.50
2022-10-07T04:31:13.389Z,9.50
2022-10-07T04:33:44.300Z,9.50
2022-10-07T04:36:14.071Z,9.50
2022-10-07T04:38:50.845Z,10.20
2022-10-07T04:41:22.211Z,10.40
2022-10-07T04:43:56.847Z,9.60
2022-10-07T04:46:28.335Z,9.50
2022-10-07T04:49:01.395Z,10.30
2022-10-07T04:51:31.344Z,9.40
2022-10-07T04:54:00.247Z,9.40
2022-10-07T04:56:33.989Z,9.40
2022-10-07T04:59:03.939Z,9.40
2022-10-07T05:01:31.071Z,9.40
2022-10-07T05:03:59.538Z,9.40
2022-10-07T05:06:27.180Z,9.40
2022-10-07T05:08:54.387Z,10.20
2022-10-07T05:11:23.103Z,9.50
2022-10-07T05:14:02.900Z,9.30
2022-10-07T05:16:32.070Z,10.70
2022-10-07T05:18:59.967Z,9.40
2022-10-07T05:21:27.893Z,9.30
2022-10-07T05:23:55.332Z,10.40
2022-10-07T05:26:29.264Z,10.10
2022-10-07T05:28:59.271Z,9.40
2022-10-07T05:31:34.072Z,9.40
2022-10-07T05:34:03.372Z,10.30
2022-10-07T05:36:30.700Z,9.50
2022-10-07T05:39:00.171Z,10.30
2022-10-07T05:41:47.576Z,10.10
2022-10-07T05:44:18.198Z,9.70
2022-10-07T05:46:47.127Z,9.50
2022-10-07T05:49:15.767Z,9.50
2022-10-07T05:51:43.445Z,9.50
2022-10-07T05:54:10.428Z,9.50
2022-10-07T05:56:41.955Z,9.60
2022-10-07T05:59:10.452Z,9.60
2022-10-07T06:01:39.192Z,10.00
2022-10-07T06:04:14.276Z,10.10
2022-10-07T06:06:45.697Z,11.90
2022-10-07T06:09:33.366Z,9.60
2022-10-07T06:12:27.346Z,9.20
2022-10-07T06:14:56.655Z,9.30
2022-10-07T06:17:24.006Z,11.30
2022-10-07T06:19:53.455Z,10.40
2022-10-07T06:22:22.869Z,9.70
2022-10-07T06:24:52.231Z,10.00
2022-10-07T06:27:20.288Z,10.80
2022-10-07T06:29:47.511Z,10.50
2022-10-07T06:32:14.889Z,9.70
2022-10-07T06:34:45.012Z,10.00
2022-10-07T06:37:13.208Z,10.40
2022-10-07T06:39:40.496Z,9.70
2022-10-07T06:42:09.328Z,9.70
2022-10-07T06:44:55.004Z,9.70
2022-10-07T06:47:25.697Z,9.70
2022-10-07T06:49:52.975Z,9.80
2022-10-07T06:52:20.061Z,10.20
2022-10-07T06:54:48.680Z,10.00
2022-10-07T06:57:43.834Z,9.90
2022-10-07T07:00:06.438Z,10.10
2022-10-07T07:02:36.004Z,10.00
2022-10-07T07:05:05.981Z,10.10
2022-10-07T07:07:33.125Z,10.10
2022-10-07T07:10:00.576Z,10.10
2022-10-07T07:12:29.185Z,10.20
2022-10-07T07:14:56.355Z,10.30
2022-10-07T07:17:23.320Z,10.40
2022-10-07T07:19:50.568Z,10.70
2022-10-07T07:22:18.876Z,10.50
2022-10-07T07:24:46.824Z,10.60
2022-10-07T07:27:15.202Z,11.00
2022-10-07T07:29:44.067Z,11.80
2022-10-07T07:32:12.373Z,11.20
2022-10-07T07:34:44.138Z,10.60
2022-10-07T07:37:17.908Z,11.30
2022-10-07T07:39:49.556Z,11.40
2022-10-07T07:42:18.923Z,10.70
2022-10-07T07:44:47.573Z,10.80
2022-10-07T07:47:17.175Z,10.70
2022-10-07T07:49:45.765Z,11.30
2022-10-07T07:52:18.210Z,11.40
2022-10-07T07:54:48.468Z,11.20
2022-10-07T07:57:15.640Z,10.70
2022-10-07T07:59:42.861Z,10.90
2022-10-07T08:02:15.303Z,10.90
2022-10-07T08:04:46.332Z,10.90
2022-10-07T08:07:14.200Z,11.00
2022-10-07T08:09:44.941Z,11.60
2022-10-07T08:12:14.820Z,11.20
2022-10-07T08:14:43.536Z,12.50
2022-10-07T08:17:12.372Z,11.30
2022-10-07T08:19:40.141Z,11.50
2022-10-07T08:22:08.901Z,12.00
2022-10-07T08:24:36.842Z,11.70
2022-10-07T08:27:04.144Z,12.30
2022-10-07T08:29:31.389Z,12.40
2022-10-07T08:31:58.661Z,12.90
2022-10-07T08:34:25.860Z,14.30
2022-10-07T08:36:53.008Z,13.90
2022-10-07T08:39:19.936Z,13.90
2022-10-07T08:41:56.665Z,14.60
2022-10-07T08:44:36.054Z,14.30
2022-10-07T08:47:25.542Z,14.50
2022-10-07T08:50:07.689Z,14.60
2022-10-07T08:52:45.324Z,14.60
2022-10-07T08:55:19.560Z,14.60
2022-10-07T08:57:58.781Z,14.60
2022-10-07T09:00:26.024Z,15.00
2022-10-07T09:02:59.139Z,14.90
2022-10-07T09:05:33.547Z,15.10
2022-10-07T09:08:12.228Z,15.40
2022-10-07T09:10:48.581Z,16.20
2022-10-07T09:13:27.046Z,16.10
2022-10-07T09:16:13.406Z,16.30
2022-10-07T09:18:45.918Z,16.40
2022-10-07T09:21:23.547Z,16.90
2022-10-07T09:23:59.303Z,17.20
2022-10-07T09:26:27.436Z,17.50
2022-10-07T09:28:54.673Z,17.80
2022-10-07T09:31:25.122Z,18.10
2022-10-07T09:33:53.996Z,18.40
2022-10-07T09:36:21.384Z,18.70
2022-10-07T09:38:52.373Z,18.70
2022-10-07T09:41:32.200Z,19.10
2022-10-07T09:44:07.008Z,19.30
2022-10-07T09:47:11.705Z,19.30
2022-10-07T09:49:43.481Z,19.40
2022-10-07T09:52:39.871Z,19.60
2022-10-07T09:55:45.945Z,19.60
2022-10-07T09:58:30.554Z,19.80
2022-10-07T10:01:01.015Z,19.80
2022-10-07T10:03:33.575Z,19.90
2022-10-07T10:06:08.627Z,19.90
2022-10-07T10:08:38.489Z,20.10
2022-10-07T10:11:20.737Z,20.30
2022-10-07T10:13:51.923Z,20.20
2022-10-07T10:16:34.458Z,20.30
2022-10-07T10:19:04.532Z,20.50
2022-10-07T10:21:40.750Z,20.80
2022-10-07T10:24:14.105Z,20.70
2022-10-07T10:27:06.842Z,20.70
2022-10-07T10:30:09.182Z,20.70
2022-10-07T10:32:51.531Z,21.00
2022-10-07T10:35:27.674Z,21.20
2022-10-07T10:38:46.865Z,21.40
2022-10-07T10:41:24.235Z,21.40
2022-10-07T10:44:22.230Z,21.50
2022-10-07T10:47:03.881Z,21.50
2022-10-07T10:49:56.089Z,21.70
2022-10-07T10:52:30.641Z,21.90
2022-10-07T10:55:34.950Z,21.70
2022-10-07T10:58:26.739Z,21.70
2022-10-07T11:00:59.814Z,21.90
2022-10-07T11:03:51.336Z,21.90
2022-10-07T11:06:19.566Z,21.80
2022-10-07T11:08:48.142Z,21.50
2022-10-07T11:11:18.246Z,21.20
2022-10-07T11:14:02.029Z,21.00
2022-10-07T11:17:02.251Z,21.00
2022-10-07T11:19:32.046Z,21.20
2022-10-07T11:22:00.682Z,21.20
2022-10-07T11:24:32.627Z,21.40
2022-10-07T11:27:14.995Z,21.30
2022-10-07T11:29:54.322Z,21.20
2022-10-07T11:32:27.049Z,21.00
2022-10-07T11:35:15.386Z,20.60
2022-10-07T11:37:50.238Z,20.20
2022-10-07T11:40:19.553Z,19.70
2022-10-07T11:42:51.806Z,19.20
2022-10-07T11:45:25.560Z,19.10
2022-10-07T11:48:07.278Z,19.10
2022-10-07T11:50:41.626Z,19.40
2022-10-07T11:53:15.810Z,20.20
2022-10-07T11:55:55.063Z,19.80
2022-10-07T11:58:29.383Z,20.00
2022-10-07T12:01:31.031Z,20.20
2022-10-07T12:04:22.614Z,20.10
2022-10-07T12:07:27.399Z,20.00
2022-10-07T12:10:03.710Z,19.80
2022-10-07T12:12:47.258Z,20.10
2022-10-07T12:15:29.551Z,20.20
2022-10-07T12:18:17.474Z,20.10
2022-10-07T12:20:51.034Z,20.20
2022-10-07T12:23:26.836Z,20.00
2022-10-07T12:26:22.643Z,20.10
2022-10-07T12:28:49.910Z,20.30
2022-10-07T12:31:17.770Z,20.10
2022-10-07T12:33:47.719Z,20.10
2022-10-07T12:36:24.375Z,19.70
2022-10-07T12:38:57.762Z,19.70
2022-10-07T12:41:40.879Z,19.60
2022-10-07T12:44:36.116Z,19.50
2022-10-07T12:47:18.565Z,19.50
2022-10-07T12:49:58.507Z,19.40
2022-10-07T12:52:57.415Z,19.20
2022-10-07T12:55:37.325Z,19.00
2022-10-07T12:58:39.591Z,18.90
2022-10-07T13:01:35.488Z,18.90
2022-10-07T13:04:16.684Z,18.70
2022-10-07T13:07:06.992Z,18.60
2022-10-07T13:09:52.363Z,18.60
2022-10-07T13:12:40.527Z,18.60
2022-10-07T13:15:07.437Z,18.70
2022-10-07T13:18:08.618Z,18.70
2022-10-07T14:17:58.708Z,17.50
2022-10-07T14:20:35.436Z,17.50
2022-10-07T14:26:18.165Z,17.50
2022-10-07T14:28:45.581Z,17.40
2022-10-07T14:31:39.452Z,17.10
2022-10-07T14:34:38.900Z,17.30
2022-10-07T14:37:27.288Z,17.20
2022-10-07T14:39:56.811Z,17.20
2022-10-07T14:42:27.880Z,17.20
2022-10-07T14:44:57.217Z,17.20
2022-10-07T14:47:28.120Z,17.20
2022-10-07T14:49:56.897Z,17.10
2022-10-07T14:52:28.074Z,17.10
2022-10-07T14:54:57.733Z,17.10
2022-10-07T14:57:25.616Z,17.00
2022-10-07T14:59:53.341Z,16.90
2022-10-07T15:02:21.079Z,17.00
2022-10-07T15:04:51.622Z,16.90
2022-10-07T15:07:21.586Z,17.10
2022-10-07T15:09:53.816Z,16.90
2022-10-07T15:12:24.353Z,16.90
2022-10-07T15:15:04.080Z,16.80
2022-10-07T15:17:44.546Z,16.80
2022-10-07T15:20:19.616Z,17.00
2022-10-07T15:22:47.988Z,17.00
2022-10-07T15:25:18.624Z,17.60
2022-10-07T15:27:47.057Z,16.70
2022-10-07T15:30:19.709Z,16.60
2022-10-07T15:32:49.497Z,16.80
2022-10-07T15:35:16.773Z,16.50
2022-10-07T15:37:45.938Z,16.50
2022-10-07T15:40:13.522Z,16.80
2022-10-07T15:42:40.545Z,16.40
2022-10-07T15:45:08.005Z,16.50
2022-10-07T15:47:34.985Z,16.40
2022-10-07T15:50:01.992Z,16.20
2022-10-07T15:52:28.873Z,16.40
2022-10-07T15:54:56.617Z,16.40
2022-10-07T15:57:27.105Z,16.30
2022-10-07T15:59:54.826Z,16.30
2022-10-07T16:02:22.349Z,16.20
2022-10-07T16:08:25.540Z,16.20
2022-10-07T16:10:52.910Z,16.10
2022-10-07T16:13:20.411Z,16.20
2022-10-07T16:16:05.592Z,16.00
2022-10-07T16:18:37.498Z,15.90
2022-10-07T16:21:11.473Z,16.30
2022-10-07T16:23:41.073Z,15.80
2022-10-07T16:26:11.433Z,15.80
2022-10-07T16:29:04.688Z,15.90
2022-10-07T16:31:33.703Z,15.70
2022-10-07T16:34:00.797Z,15.50
2022-10-07T16:36:28.257Z,15.50
2022-10-07T16:38:55.452Z,15.50
2022-10-07T16:41:22.571Z,15.70
2022-10-07T16:43:49.998Z,15.40
2022-10-07T16:46:19.652Z,15.40
2022-10-07T16:48:48.718Z,15.30
2022-10-07T16:51:21.173Z,15.50
2022-10-07T16:53:49.966Z,15.30
2022-10-07T16:56:19.038Z,15.40
2022-10-07T16:59:21.331Z,15.40
2022-10-07T17:01:51.962Z,15.20
2022-10-07T17:04:19.211Z,15.30
2022-10-07T17:06:46.571Z,15.10
2022-10-07T17:09:14.485Z,15.10
2022-10-07T17:11:42.317Z,15.00
2022-10-07T17:14:09.565Z,15.00
2022-10-07T17:16:47.322Z,15.20
2022-10-07T17:19:20.070Z,14.90
2022-10-07T17:21:48.977Z,14.90
2022-10-07T17:24:17.687Z,15.10
2022-10-07T17:26:45.524Z,15.10
2022-10-07T17:29:13.998Z,15.10
2022-10-07T17:31:43.323Z,15.70
2022-10-07T17:34:11.893Z,15.00
2022-10-07T17:36:39.953Z,15.40
2022-10-07T17:39:07.885Z,15.10
2022-10-07T17:41:37.723Z,15.20
2022-10-07T17:44:09.446Z,15.10
2022-10-07T17:46:39.324Z,15.20
2022-10-07T17:49:09.199Z,15.10
2022-10-07T17:51:37.539Z,15.20
2022-10-07T17:54:08.845Z,15.00
2022-10-07T17:56:36.099Z,15.00
2022-10-07T17:59:05.596Z,15.00
2022-10-07T18:01:34.757Z,16.10
2022-10-07T18:04:07.681Z,15.90
2022-10-07T18:06:37.510Z,14.90
2022-10-07T18:09:07.438Z,14.90
2022-10-07T18:11:53.031Z,14.90
2022-10-07T18:14:39.294Z,14.90
2022-10-07T18:17:08.144Z,14.90
2022-10-07T18:19:35.495Z,14.90
2022-10-07T18:22:05.435Z,14.90
2022-10-07T18:24:32.453Z,15.80
2022-10-07T18:27:01.408Z,14.80
2022-10-07T18:29:30.690Z,14.80
2022-10-07T18:31:58.226Z,14.80
2022-10-07T18:34:25.534Z,16.00
2022-10-07T18:36:57.242Z,14.80
2022-10-07T18:39:44.454Z,14.70
2022-10-07T18:42:11.627Z,15.30
2022-10-07T18:44:38.798Z,14.80
2022-10-07T18:47:18.059Z,14.80
2022-10-07T18:49:45.086Z,14.90
